Time;durP1;ratioP1;P1;durP2;ratioP2;P2;SDS_P1;SDS_P2;PMS_P1;PMS_P2;Temp;Humidity;BMP_temperature;BMP_pressure;BME280_temperature;BME280_humidity;BME280_pressure;Samples;Min_cycle;Max_cycle;Signal;HPM_P1;HPM_P2
2023/08/26 00:02:00;;;;;;;33.60;29.80;;;18.50;99.90;;;;;;5116954;28;20434;-61
2023/08/26 00:04:29;;;;;;;32.63;29.23;;;18.60;99.90;;;;;;5098347;28;20551;-61
2023/08/26 00:06:56;;;;;;;32.63;29.33;;;18.60;99.90;;;;;;5099454;28;20435;-62
2023/08/26 00:09:24;;;;;;;33.27;29.77;;;18.60;99.90;;;;;;5099559;28;20456;-62
2023/08/26 00:11:51;;;;;;;34.00;28.43;;;18.50;99.90;;;;;;5099715;28;20849;-62
2023/08/26 00:14:18;;;;;;;31.97;28.67;;;18.50;99.90;;;;;;5099231;28;20554;-62
2023/08/26 00:16:45;;;;;;;33.03;29.77;;;18.50;99.90;;;;;;5098945;28;20534;-62
2023/08/26 00:19:12;;;;;;;30.47;27.27;;;18.50;99.90;;;;;;5098630;28;20452;-61
2023/08/26 00:21:41;;;;;;;31.87;28.33;;;18.50;99.90;;;;;;5099134;28;20495;-61
2023/08/26 00:24:09;;;;;;;32.53;29.07;;;18.40;99.90;;;;;;5098918;28;20462;-62
2023/08/26 00:26:36;;;;;;;30.10;27.03;;;18.40;99.90;;;;;;5099149;28;20471;-61
2023/08/26 00:29:03;;;;;;;29.97;26.73;;;18.40;99.90;;;;;;5099009;28;20941;-62
2023/08/26 00:31:30;;;;;;;31.37;28.33;;;18.40;99.90;;;;;;5098606;28;20574;-62
2023/08/26 00:34:02;;;;;;;31.33;27.60;;;18.40;99.90;;;;;;5098829;28;20459;-62
2023/08/26 00:36:30;;;;;;;34.10;29.33;;;18.50;99.90;;;;;;5113555;28;20958;-62
2023/08/26 00:38:59;;;;;;;32.90;29.60;;;18.40;99.90;;;;;;5119292;28;20468;-62
2023/08/26 00:41:26;;;;;;;32.27;28.93;;;18.40;99.90;;;;;;5119173;28;20554;-62
2023/08/26 00:43:53;;;;;;;31.97;28.63;;;18.50;99.90;;;;;;5118720;28;20469;-62
2023/08/26 00:46:23;;;;;;;32.53;28.97;;;18.50;99.90;;;;;;5118802;28;20895;-62
2023/08/26 00:48:50;;;;;;;37.80;31.27;;;18.50;99.90;;;;;;5119261;28;20842;-61
2023/08/26 00:51:19;;;;;;;32.70;29.37;;;18.40;99.90;;;;;;5118587;28;20854;-62
2023/08/26 00:53:47;;;;;;;33.27;29.70;;;18.40;99.90;;;;;;5118407;28;20554;-62
2023/08/26 00:56:16;;;;;;;35.17;31.40;;;18.40;99.90;;;;;;5101770;28;20452;-61
2023/08/26 00:58:44;;;;;;;33.53;29.93;;;18.30;99.90;;;;;;5098597;28;20556;-62
2023/08/26 01:01:12;;;;;;;32.43;29.00;;;18.30;99.90;;;;;;5098058;28;20751;-62
2023/08/26 01:03:39;;;;;;;33.70;30.20;;;18.30;99.90;;;;;;5098631;28;20467;-62
2023/08/26 01:06:06;;;;;;;34.17;30.70;;;18.20;99.90;;;;;;5097979;28;20456;-62
2023/08/26 01:08:34;;;;;;;33.83;30.30;;;18.30;99.90;;;;;;5098159;28;20496;-62
2023/08/26 01:11:08;;;;;;;35.13;29.97;;;18.30;99.90;;;;;;5098294;28;21034;-62
2023/08/26 01:13:49;;;;;;;30.70;27.40;;;18.30;1.00;;;;;;5098380;28;20477;-61
2023/08/26 01:16:17;;;;;;;28.03;25.07;;;18.20;1.00;;;;;;5101880;28;20919;-62
2023/08/26 01:18:45;;;;;;;27.77;24.77;;;18.20;1.00;;;;;;5117866;28;20562;-61
2023/08/26 01:21:15;;;;;;;26.93;24.13;;;18.10;1.00;;;;;;5118375;28;20891;-62
2023/08/26 01:23:45;;;;;;;26.63;24.03;;;18.10;1.00;;;;;;5118391;28;20459;-62
2023/08/26 01:26:12;;;;;;;24.90;20.73;;;18.10;1.00;;;;;;5118823;28;20799;-62
2023/08/26 01:28:39;;;;;;;20.53;18.33;;;18.10;99.90;;;;;;5117339;28;20466;-62
2023/08/26 01:31:11;;;;;;;17.67;15.57;;;17.90;99.90;;;;;;5118396;28;20461;-62
2023/08/26 01:33:44;;;;;;;20.67;18.50;;;17.80;1.00;;;;;;5117790;28;20873;-62
2023/08/26 01:36:18;;;;;;;22.17;17.10;;;17.90;1.00;;;;;;5117641;28;20952;-62
2023/08/26 01:38:47;;;;;;;19.20;17.27;;;17.90;1.00;;;;;;5117722;28;20463;-62
2023/08/26 01:41:18;;;;;;;18.53;16.63;;;17.80;1.00;;;;;;5118469;28;20452;-62
2023/08/26 01:43:47;;;;;;;19.03;17.13;;;17.70;99.90;;;;;;5115736;28;20510;-62
2023/08/26 01:46:15;;;;;;;19.43;17.50;;;17.70;99.90;;;;;;5077618;28;20531;-63
2023/08/26 01:48:42;;;;;;;18.70;16.73;;;17.70;99.90;;;;;;5077666;28;20507;-62
2023/08/26 01:51:10;;;;;;;18.00;15.73;;;17.60;99.90;;;;;;5077374;28;20462;-62
2023/08/26 01:53:37;;;;;;;18.03;16.23;;;17.60;99.90;;;;;;5089704;28;20901;-62
2023/08/26 01:56:06;;;;;;;15.50;13.73;;;17.60;99.90;;;;;;5097541;28;20491;-62
2023/08/26 01:58:33;;;;;;;17.50;15.70;;;17.70;99.90;;;;;;5098059;28;20495;-62
2023/08/26 02:01:06;;;;;;;17.70;16.10;;;17.70;99.90;;;;;;5097762;28;20483;-62
2023/08/26 02:03:33;;;;;;;19.50;15.80;;;17.70;99.90;;;;;;5097510;28;20453;-62
2023/08/26 02:06:00;;;;;;;17.20;15.03;;;17.70;99.90;;;;;;5097208;28;20551;-61
2023/08/26 02:08:28;;;;;;;17.60;15.80;;;17.70;99.90;;;;;;5103687;28;20482;-62
2023/08/26 02:10:56;;;;;;;17.03;13.50;;;17.60;99.90;;;;;;5117137;28;20456;-63
2023/08/26 02:13:25;;;;;;;16.10;14.50;;;17.60;99.90;;;;;;5117803;28;20770;-62
2023/08/26 02:15:53;;;;;;;15.27;13.67;;;17.50;99.90;;;;;;5117107;28;20437;-62
2023/08/26 02:18:20;;;;;;;17.30;12.17;;;17.30;1.00;;;;;;5116311;28;20462;-61
2023/08/26 02:20:48;;;;;;;13.30;11.47;;;17.20;1.00;;;;;;5115586;28;20460;-62
2023/08/26 02:23:15;;;;;;;13.27;11.87;;;17.00;1.00;;;;;;5110236;28;20457;-61
2023/08/26 02:25:43;;;;;;;12.30;11.20;;;16.80;1.00;;;;;;5096980;28;20462;-63
2023/08/26 02:28:10;;;;;;;13.53;10.37;;;16.60;1.00;;;;;;5096818;28;20463;-62
2023/08/26 02:30:39;;;;;;;13.20;9.67;;;16.50;1.00;;;;;;5097111;28;20901;-62
2023/08/26 02:33:08;;;;;;;13.83;9.60;;;16.40;1.00;;;;;;5097940;28;20484;-64
2023/08/26 02:35:36;;;;;;;15.17;9.33;;;16.30;1.00;;;;;;5090672;28;20514;-62
2023/08/26 02:38:03;;;;;;;13.20;10.33;;;16.10;1.00;;;;;;5117154;28;20455;-62
2023/08/26 02:40:30;;;;;;;12.30;11.00;;;16.00;1.00;;;;;;5116883;28;20459;-61
2023/08/26 02:42:58;;;;;;;13.50;10.07;;;15.80;1.00;;;;;;5117232;28;20487;-62
2023/08/26 02:45:25;;;;;;;11.50;9.30;;;15.70;1.00;;;;;;5117402;28;20460;-62
2023/08/26 02:47:53;;;;;;;9.80;8.83;;;15.70;1.00;;;;;;5117057;28;20473;-62
2023/08/26 02:50:21;;;;;;;14.73;7.97;;;15.60;1.00;;;;;;5117901;28;20479;-62
2023/08/26 02:52:48;;;;;;;10.50;8.83;;;15.50;1.00;;;;;;5120725;28;20493;-62
2023/08/26 02:55:15;;;;;;;11.03;7.10;;;15.50;1.00;;;;;;5120673;28;20456;-62
2023/08/26 02:57:43;;;;;;;10.53;7.07;;;15.40;1.00;;;;;;5120783;28;20495;-62
2023/08/26 03:00:11;;;;;;;9.57;6.50;;;15.40;1.00;;;;;;5100689;28;20513;-62
2023/08/26 03:02:38;;;;;;;8.30;7.13;;;15.30;1.00;;;;;;5100694;28;20460;-62
2023/08/26 03:05:07;;;;;;;12.03;8.30;;;15.30;1.00;;;;;;5110048;28;20490;-62
2023/08/26 03:07:35;;;;;;;12.37;6.60;;;15.20;1.00;;;;;;5121066;28;20550;-62
2023/08/26 03:10:02;;;;;;;9.70;6.90;;;15.10;1.00;;;;;;5120636;28;20486;-62
2023/08/26 03:12:29;;;;;;;9.70;7.20;;;15.20;1.00;;;;;;5120841;28;20527;-63
2023/08/26 03:14:56;;;;;;;10.47;6.00;;;15.10;1.00;;;;;;5120292;28;20957;-63
2023/08/26 03:17:24;;;;;;;8.27;6.20;;;15.00;1.00;;;;;;5120533;28;20512;-63
2023/08/26 03:19:51;;;;;;;7.73;6.10;;;15.00;1.00;;;;;;5119882;28;20459;-63
2023/08/26 03:22:20;;;;;;;8.00;5.93;;;15.00;1.00;;;;;;5120885;28;20482;-63
2023/08/26 03:24:47;;;;;;;7.10;5.37;;;14.80;1.00;;;;;;5119743;28;20463;-62
2023/08/26 03:27:14;;;;;;;8.43;5.80;;;14.80;1.00;;;;;;5120512;28;20528;-62
2023/08/26 03:29:41;;;;;;;6.77;5.20;;;14.60;1.00;;;;;;5120132;28;20461;-62
2023/08/26 03:32:08;;;;;;;9.10;5.20;;;14.60;1.00;;;;;;5120355;28;20487;-62
2023/08/26 03:34:36;;;;;;;7.07;5.50;;;14.60;1.00;;;;;;5119655;28;20431;-63
2023/08/26 03:37:04;;;;;;;9.60;5.07;;;14.50;1.00;;;;;;5118650;28;20503;-62
2023/08/26 03:39:32;;;;;;;5.30;4.07;;;14.40;1.00;;;;;;5120504;28;20455;-63
2023/08/26 03:42:00;;;;;;;6.60;4.77;;;14.40;1.00;;;;;;5120173;28;20547;-63
2023/08/26 03:44:27;;;;;;;6.37;4.17;;;14.40;1.00;;;;;;5120382;28;20964;-63
2023/08/26 03:46:54;;;;;;;9.10;4.70;;;14.40;1.00;;;;;;5119509;28;20495;-63
2023/08/26 03:49:21;;;;;;;5.77;4.33;;;14.30;1.00;;;;;;5119936;28;20459;-63
2023/08/26 03:51:49;;;;;;;7.23;4.87;;;14.30;1.00;;;;;;5119691;28;20458;-63
2023/08/26 03:54:16;;;;;;;9.53;4.63;;;14.20;1.00;;;;;;5119669;28;20455;-63
2023/08/26 03:56:45;;;;;;;6.17;3.80;;;14.20;1.00;;;;;;5120204;28;20553;-63
2023/08/26 03:59:12;;;;;;;6.80;4.87;;;14.10;1.00;;;;;;5119393;28;20550;-63
2023/08/26 04:01:39;;;;;;;8.63;4.23;;;14.10;1.00;;;;;;5119551;28;20955;-63
2023/08/26 04:04:07;;;;;;;9.20;4.33;;;14.10;1.00;;;;;;5119570;28;20943;-63
2023/08/26 04:06:34;;;;;;;5.47;3.80;;;14.00;1.00;;;;;;5119671;28;20550;-63
2023/08/26 04:09:02;;;;;;;6.40;3.77;;;13.90;1.00;;;;;;5119095;28;20467;-64
2023/08/26 04:11:29;;;;;;;4.67;3.57;;;13.90;1.00;;;;;;5119285;28;20464;-63
2023/08/26 04:13:58;;;;;;;7.60;4.53;;;13.90;1.00;;;;;;5119347;28;20598;-63
2023/08/26 04:16:25;;;;;;;6.67;4.00;;;14.00;1.00;;;;;;5119028;28;20487;-63
2023/08/26 04:18:53;;;;;;;5.60;3.67;;;13.80;1.00;;;;;;5119116;28;20738;-63
2023/08/26 04:21:20;;;;;;;8.20;4.20;;;13.90;1.00;;;;;;5119578;28;20455;-63
2023/08/26 04:23:47;;;;;;;9.07;4.17;;;13.80;1.00;;;;;;5118807;28;20463;-63
2023/08/26 04:26:14;;;;;;;6.03;3.60;;;13.70;1.00;;;;;;5119789;28;20684;-63
2023/08/26 04:28:42;;;;;;;13.93;4.23;;;13.70;1.00;;;;;;5119414;28;20735;-63
2023/08/26 04:31:11;;;;;;;8.30;5.10;;;13.60;1.00;;;;;;5118589;28;20463;-63
2023/08/26 04:33:39;;;;;;;8.90;4.90;;;13.60;2.10;;;;;;5119326;28;20527;-63
2023/08/26 04:36:06;;;;;;;7.80;4.90;;;13.60;1.00;;;;;;5118946;28;20490;-64
2023/08/26 04:38:33;;;;;;;5.53;3.97;;;13.60;1.00;;;;;;5119116;28;20562;-63
2023/08/26 04:41:00;;;;;;;7.67;4.87;;;13.60;1.00;;;;;;5118271;28;20460;-63
2023/08/26 04:43:28;;;;;;;6.90;5.07;;;13.60;1.00;;;;;;5118490;28;20455;-64
2023/08/26 04:45:55;;;;;;;7.90;5.10;;;13.60;1.00;;;;;;5118874;28;20813;-64
2023/08/26 04:48:24;;;;;;;9.53;4.60;;;13.60;10.90;;;;;;5118703;28;20459;-64
2023/08/26 04:50:51;;;;;;;8.17;4.70;;;13.50;8.60;;;;;;5119209;28;20497;-64
2023/08/26 04:53:18;;;;;;;6.93;4.80;;;13.50;77.90;;;;;;5118484;28;20530;-63
2023/08/26 04:55:49;;;;;;;11.30;5.47;;;13.50;99.90;;;;;;5118870;28;20455;-64
2023/08/26 04:58:17;;;;;;;7.17;5.07;;;13.60;99.90;;;;;;5118538;28;20499;-64
2023/08/26 05:00:44;;;;;;;5.30;4.10;;;13.60;99.90;;;;;;5118867;28;20802;-64
2023/08/26 05:03:11;;;;;;;8.27;5.40;;;13.60;99.90;;;;;;5118870;28;20900;-64
2023/08/26 05:05:42;;;;;;;9.03;5.30;;;13.60;99.90;;;;;;5117780;28;20487;-64
2023/08/26 05:08:10;;;;;;;7.93;5.13;;;13.60;99.90;;;;;;5118612;28;20494;-64
2023/08/26 05:10:38;;;;;;;8.90;5.33;;;13.50;99.90;;;;;;5118918;28;20926;-63
2023/08/26 05:13:05;;;;;;;7.23;5.37;;;13.50;99.90;;;;;;5117923;28;20531;-63
2023/08/26 05:15:33;;;;;;;7.80;4.77;;;13.50;99.90;;;;;;5117568;28;20901;-64
2023/08/26 05:18:00;;;;;;;9.30;5.03;;;13.50;99.90;;;;;;5117608;28;20902;-64
2023/08/26 05:20:29;;;;;;;7.10;4.97;;;13.50;99.90;;;;;;5117586;28;20763;-64
2023/08/26 05:22:58;;;;;;;7.50;4.90;;;13.60;99.90;;;;;;5118618;28;20459;-63
2023/08/26 05:25:25;;;;;;;8.00;4.33;;;13.50;99.90;;;;;;5117553;28;20570;-64
2023/08/26 05:27:53;;;;;;;7.30;4.53;;;13.50;99.90;;;;;;5117629;28;20562;-64
2023/08/26 05:30:20;;;;;;;6.87;4.67;;;13.60;99.90;;;;;;5118423;28;20481;-64
2023/08/26 05:32:47;;;;;;;7.73;4.37;;;13.50;99.90;;;;;;5118204;28;20996;-63
2023/08/26 05:35:15;;;;;;;8.67;4.53;;;13.60;99.90;;;;;;5118033;28;20862;-63
2023/08/26 05:37:45;;;;;;;5.97;3.83;;;13.70;90.60;;;;;;5117183;28;20495;-62
2023/08/26 05:40:14;;;;;;;6.37;3.90;;;13.70;40.60;;;;;;5117494;28;20463;-61
2023/08/26 05:42:42;;;;;;;6.03;3.90;;;13.80;6.70;;;;;;5117545;28;20456;-61
2023/08/26 05:45:09;;;;;;;6.30;4.00;;;13.80;1.00;;;;;;5118117;28;20463;-62
2023/08/26 05:47:37;;;;;;;8.37;5.00;;;13.90;1.00;;;;;;5117058;28;20466;-62
2023/08/26 05:50:05;;;;;;;8.57;3.90;;;14.00;13.00;;;;;;5117801;28;20461;-61
2023/08/26 05:52:32;;;;;;;6.97;4.20;;;14.00;1.00;;;;;;5117356;28;20804;-61
2023/08/26 05:54:59;;;;;;;5.90;3.70;;;14.10;1.00;;;;;;5117829;28;20550;-62
2023/08/26 05:57:28;;;;;;;7.93;3.93;;;14.10;1.00;;;;;;5117316;28;20459;-62
2023/08/26 05:59:55;;;;;;;6.40;4.10;;;14.10;1.00;;;;;;5117168;28;20461;-61
2023/08/26 06:02:22;;;;;;;8.23;3.83;;;14.20;1.00;;;;;;5117704;28;20487;-62
2023/08/26 06:04:50;;;;;;;5.50;3.50;;;14.30;99.90;;;;;;5118170;28;20451;-63
2023/08/26 06:07:18;;;;;;;9.50;3.53;;;14.40;99.90;;;;;;5117851;28;20842;-62
2023/08/26 06:09:45;;;;;;;5.40;3.43;;;14.40;99.90;;;;;;5116519;28;20903;-62
2023/08/26 06:12:12;;;;;;;8.10;3.50;;;14.50;99.90;;;;;;5116934;28;20461;-61
2023/08/26 06:14:41;;;;;;;10.53;3.60;;;14.50;99.90;;;;;;5097354;28;20538;-62
2023/08/26 06:17:08;;;;;;;8.17;3.20;;;14.60;99.90;;;;;;5097363;28;20505;-62
2023/08/26 06:19:36;;;;;;;6.00;3.20;;;14.70;99.90;;;;;;5107266;28;20506;-62
2023/08/26 06:22:03;;;;;;;6.17;3.30;;;14.80;99.90;;;;;;5117194;28;20502;-62
2023/08/26 06:24:30;;;;;;;4.73;2.80;;;14.90;99.10;;;;;;5117545;28;20567;-62
2023/08/26 06:26:58;;;;;;;4.83;2.73;;;15.10;83.50;;;;;;5121884;28;20455;-62
2023/08/26 06:29:25;;;;;;;5.80;2.67;;;15.30;1.00;;;;;;5120763;28;20542;-62
2023/08/26 06:31:54;;;;;;;6.47;3.23;;;15.50;1.00;;;;;;5121708;28;20467;-62
2023/08/26 06:34:22;;;;;;;4.93;3.07;;;15.60;1.00;;;;;;5121031;28;20578;-62
2023/08/26 06:36:49;;;;;;;4.70;2.80;;;15.60;99.90;;;;;;5121369;28;20483;-62
2023/08/26 06:39:16;;;;;;;8.20;2.87;;;15.80;1.00;;;;;;5121162;28;20558;-62
2023/08/26 06:41:43;;;;;;;4.30;2.70;;;15.90;99.90;;;;;;5120441;28;20459;-63
2023/08/26 06:44:11;;;;;;;5.27;2.40;;;16.00;99.90;;;;;;5119963;28;20520;-63
2023/08/26 06:46:40;;;;;;;5.53;2.60;;;16.10;99.90;;;;;;5121455;28;20508;-62
2023/08/26 06:49:08;;;;;;;5.07;2.90;;;16.40;99.90;;;;;;5121016;28;20463;-63
2023/08/26 06:51:36;;;;;;;3.30;2.67;;;16.50;99.90;;;;;;5121710;28;20486;-63
2023/08/26 06:54:03;;;;;;;3.83;2.67;;;16.70;99.90;;;;;;5120626;28;20487;-63
2023/08/26 06:56:30;;;;;;;3.73;3.07;;;16.70;1.00;;;;;;5120695;28;20516;-63
2023/08/26 06:58:59;;;;;;;4.07;2.40;;;16.80;28.20;;;;;;5121194;28;20462;-63
2023/08/26 07:01:26;;;;;;;7.83;2.57;;;17.00;58.40;;;;;;5120020;28;20850;-63
2023/08/26 07:03:54;;;;;;;6.80;2.60;;;17.10;99.90;;;;;;5117658;28;20802;-64
2023/08/26 07:06:24;;;;;;;4.10;2.37;;;17.30;19.90;;;;;;5118308;28;20891;-63
2023/08/26 07:08:51;;;;;;;7.60;2.80;;;17.50;1.00;;;;;;5120576;28;20464;-64
2023/08/26 07:11:19;;;;;;;5.33;2.60;;;17.60;1.00;;;;;;5120710;28;20459;-63
2023/08/26 07:13:46;;;;;;;5.40;2.60;;;17.60;1.00;;;;;;5120844;28;20523;-63
2023/08/26 07:16:13;;;;;;;4.30;2.77;;;17.60;1.00;;;;;;5125221;27;20486;-63
2023/08/26 07:18:41;;;;;;;5.60;2.60;;;18.00;1.00;;;;;;5126090;27;20487;-63
2023/08/26 07:21:08;;;;;;;6.63;3.10;;;18.20;1.00;;;;;;5123855;27;20446;-63
2023/08/26 07:23:38;;;;;;;6.57;3.13;;;18.50;1.00;;;;;;5117848;28;20508;-62
2023/08/26 07:26:05;;;;;;;5.27;2.40;;;18.50;99.90;;;;;;5117419;28;20459;-63
2023/08/26 07:28:32;;;;;;;4.37;2.57;;;18.60;99.90;;;;;;5116747;28;20543;-63
2023/08/26 07:31:03;;;;;;;6.03;3.00;;;18.60;99.90;;;;;;5117996;28;20490;-63
2023/08/26 07:33:31;;;;;;;4.10;2.77;;;18.80;99.90;;;;;;5119423;28;20886;-64
2023/08/26 07:36:03;;;;;;;7.80;2.93;;;18.50;1.00;;;;;;5117997;28;20578;-63
2023/08/26 07:38:31;;;;;;;4.00;2.67;;;19.00;99.90;;;;;;5118542;28;20452;-63
2023/08/26 07:40:59;;;;;;;4.77;2.80;;;19.20;99.90;;;;;;5118223;28;20884;-63
2023/08/26 07:43:27;;;;;;;5.30;2.80;;;19.10;1.00;;;;;;5118690;28;20538;-62
2023/08/26 07:45:54;;;;;;;3.30;2.37;;;18.70;1.00;;;;;;5119206;28;20448;-65
2023/08/26 07:48:22;;;;;;;3.87;2.40;;;18.70;1.00;;;;;;5118487;28;20499;-64
2023/08/26 07:50:49;;;;;;;3.10;2.30;;;18.90;1.00;;;;;;5118370;28;20553;-63
2023/08/26 07:53:16;;;;;;;4.20;2.60;;;19.20;1.00;;;;;;5119564;28;20513;-63
2023/08/26 07:55:44;;;;;;;3.40;2.27;;;19.30;37.20;;;;;;5119562;28;20455;-63
2023/08/26 07:58:12;;;;;;;5.20;2.40;;;19.20;1.00;;;;;;5119987;28;20558;-63
2023/08/26 08:00:40;;;;;;;3.67;2.70;;;19.30;99.90;;;;;;5118317;28;20817;-64
2023/08/26 08:03:08;;;;;;;5.57;2.87;;;19.50;1.00;;;;;;5119248;28;20934;-61
2023/08/26 08:05:35;;;;;;;4.60;2.63;;;19.40;99.90;;;;;;5113577;28;20463;-63
2023/08/26 08:08:03;;;;;;;3.67;2.40;;;19.10;99.90;;;;;;5117899;28;20554;-64
2023/08/26 08:10:31;;;;;;;2.90;2.10;;;19.30;1.00;;;;;;5118144;28;21120;-62
2023/08/26 08:12:58;;;;;;;3.93;2.40;;;19.70;99.90;;;;;;5118034;28;20512;-63
2023/08/26 08:15:27;;;;;;;7.77;2.50;;;19.50;99.90;;;;;;5117867;28;20461;-63
2023/08/26 08:17:55;;;;;;;2.70;2.20;;;19.60;99.90;;;;;;5116677;28;20456;-63
2023/08/26 08:20:22;;;;;;;4.37;2.30;;;20.00;99.90;;;;;;5117895;28;20495;-63
2023/08/26 08:22:50;;;;;;;2.87;2.43;;;20.30;99.90;;;;;;5117973;28;20464;-63
2023/08/26 08:25:17;;;;;;;3.23;2.10;;;20.50;99.90;;;;;;5117845;28;20451;-63
2023/08/26 08:27:45;;;;;;;3.47;2.43;;;20.40;99.90;;;;;;5114457;28;20470;-63
2023/08/26 08:30:12;;;;;;;3.73;2.70;;;20.30;24.30;;;;;;5117441;28;20459;-63
2023/08/26 08:32:41;;;;;;;3.87;2.50;;;20.30;99.90;;;;;;5118884;28;20458;-63
2023/08/26 08:35:10;;;;;;;4.23;2.03;;;20.40;99.90;;;;;;5118428;28;20883;-63
2023/08/26 08:37:37;;;;;;;5.10;3.00;;;20.50;99.90;;;;;;5114764;28;20460;-63
2023/08/26 08:40:05;;;;;;;3.87;2.70;;;20.70;1.00;;;;;;5098422;28;20893;-62
2023/08/26 08:42:35;;;;;;;3.73;2.47;;;20.80;99.90;;;;;;5099824;28;20559;-62
2023/08/26 08:45:04;;;;;;;3.77;2.30;;;20.90;99.90;;;;;;5098029;28;20456;-63
2023/08/26 08:47:32;;;;;;;3.80;3.00;;;21.00;99.90;;;;;;5098312;28;20463;-62
2023/08/26 08:50:02;;;;;;;3.90;2.40;;;21.20;1.00;;;;;;5097406;28;20506;-63
2023/08/26 08:52:30;;;;;;;3.07;2.40;;;21.30;35.20;;;;;;5099357;28;20510;-63
2023/08/26 08:54:57;;;;;;;2.43;1.83;;;21.80;1.00;;;;;;5103868;28;20516;-63
2023/08/26 08:57:32;;;;;;;2.90;2.10;;;21.90;99.90;;;;;;5098760;28;20551;-63
2023/08/26 09:00:02;;;;;;;6.47;2.70;;;22.00;99.90;;;;;;5098155;28;20479;-63
2023/08/26 09:02:30;;;;;;;4.33;2.17;;;21.80;99.90;;;;;;5097862;28;20460;-63
2023/08/26 09:04:58;;;;;;;5.30;2.50;;;22.10;99.90;;;;;;5099112;28;20893;-63
2023/08/26 09:07:28;;;;;;;3.17;2.10;;;22.10;99.90;;;;;;5100528;28;20515;-63
2023/08/26 09:09:57;;;;;;;4.23;2.60;;;22.40;99.90;;;;;;5117167;28;20479;-62
2023/08/26 09:12:25;;;;;;;3.63;2.40;;;22.60;99.90;;;;;;5112297;28;20451;-62
2023/08/26 09:14:54;;;;;;;4.07;2.10;;;22.40;99.90;;;;;;5108359;28;20495;-62
2023/08/26 09:17:22;;;;;;;3.20;2.07;;;22.50;99.90;;;;;;5095501;28;20469;-63
2023/08/26 09:19:54;;;;;;;4.20;2.30;;;22.50;99.90;;;;;;5097873;28;20468;-62
2023/08/26 09:22:26;;;;;;;3.27;2.10;;;22.70;99.90;;;;;;5098783;28;20498;-63
2023/08/26 09:24:57;;;;;;;4.50;2.60;;;23.00;99.90;;;;;;5096739;28;20452;-63
2023/08/26 09:27:24;;;;;;;2.97;2.07;;;23.20;99.90;;;;;;5097930;28;20495;-63
2023/08/26 09:29:52;;;;;;;3.17;2.53;;;23.30;99.90;;;;;;5098420;28;20792;-63
2023/08/26 09:32:35;;;;;;;2.40;2.20;;;23.50;99.90;;;;;;5100021;28;20468;-63
2023/08/26 09:35:10;;;;;;;3.83;2.50;;;23.20;99.90;;;;;;5098099;28;20503;-62
2023/08/26 09:37:40;;;;;;;2.60;2.03;;;23.20;99.90;;;;;;5088311;28;20493;-62
2023/08/26 09:40:13;;;;;;;3.37;2.20;;;23.30;99.90;;;;;;5095844;28;20509;-62
2023/08/26 09:42:40;;;;;;;3.33;2.30;;;23.20;99.90;;;;;;5108883;28;20778;-62
2023/08/26 09:45:09;;;;;;;5.07;2.40;;;22.40;99.90;;;;;;5111593;28;20456;-62
2023/08/26 09:47:38;;;;;;;3.27;2.40;;;22.60;99.90;;;;;;5082784;28;20643;-62
2023/08/26 09:50:06;;;;;;;3.67;2.30;;;22.70;99.90;;;;;;5086424;28;20475;-63
2023/08/26 09:52:43;;;;;;;5.63;2.60;;;23.10;99.90;;;;;;5101420;28;20496;-63
2023/08/26 09:55:11;;;;;;;3.17;2.30;;;23.50;99.90;;;;;;5100276;28;20492;-61
2023/08/26 09:57:39;;;;;;;4.37;2.30;;;23.50;99.90;;;;;;5092432;28;20469;-62
2023/08/26 10:00:10;;;;;;;5.73;2.50;;;23.70;99.90;;;;;;5093993;28;20503;-64
2023/08/26 10:02:39;;;;;;;2.20;1.83;;;23.90;99.90;;;;;;5099209;28;20494;-62
2023/08/26 10:05:14;;;;;;;2.37;1.93;;;23.70;99.90;;;;;;5088942;28;20466;-62
2023/08/26 10:07:47;;;;;;;2.63;2.07;;;22.70;99.90;;;;;;5076841;28;20457;-62
2023/08/26 10:10:20;;;;;;;3.93;2.37;;;22.00;99.90;;;;;;5080148;28;20466;-62
2023/08/26 10:12:50;;;;;;;5.77;2.90;;;22.20;56.60;;;;;;5076727;28;20757;-62
2023/08/26 10:15:20;;;;;;;6.63;5.23;;;22.40;1.00;;;;;;5079238;28;20495;-62
2023/08/26 10:17:50;;;;;;;4.33;2.40;;;22.40;1.00;;;;;;5081687;28;20529;-63
2023/08/26 10:20:18;;;;;;;3.80;2.20;;;22.50;1.00;;;;;;5097218;28;20491;-62
2023/08/26 10:22:48;;;;;;;2.00;1.73;;;22.30;1.00;;;;;;5097150;28;20460;-62
2023/08/26 10:25:16;;;;;;;2.90;2.20;;;22.20;1.00;;;;;;5100369;28;20456;-63
2023/08/26 10:27:44;;;;;;;6.23;3.00;;;22.50;1.00;;;;;;5101219;28;20550;-62
2023/08/26 10:30:12;;;;;;;3.93;2.50;;;23.00;1.00;;;;;;5095643;28;20470;-62
2023/08/26 10:32:44;;;;;;;3.63;2.30;;;22.60;1.00;;;;;;5095142;28;20893;-63
2023/08/26 10:35:13;;;;;;;3.57;2.33;;;22.40;1.00;;;;;;5099767;28;20506;-62
2023/08/26 10:37:41;;;;;;;4.47;2.53;;;23.00;1.00;;;;;;5115452;28;20451;-62
2023/08/26 10:40:12;;;;;;;2.33;1.97;;;23.80;1.00;;;;;;5116017;28;20444;-62
2023/08/26 10:42:40;;;;;;;2.00;1.83;;;24.30;29.80;;;;;;5116283;28;20466;-62
2023/08/26 10:45:14;;;;;;;4.00;2.30;;;24.70;83.20;;;;;;5114347;28;20776;-63
2023/08/26 10:47:45;;;;;;;5.20;2.37;;;25.20;99.90;;;;;;5116958;28;20460;-63
2023/08/26 10:50:20;;;;;;;2.63;2.20;;;24.40;99.90;;;;;;5116447;28;20482;-62
2023/08/26 10:52:52;;;;;;;4.93;2.80;;;24.60;99.90;;;;;;5106594;28;20508;-62
2023/08/26 10:55:26;;;;;;;3.57;2.10;;;24.70;99.60;;;;;;5116486;28;20526;-62
2023/08/26 10:58:19;;;;;;;3.00;2.53;;;24.60;89.70;;;;;;5115096;28;20520;-62
2023/08/26 11:00:48;;;;;;;2.87;2.00;;;24.30;68.40;;;;;;5084285;28;20846;-62
2023/08/26 11:03:18;;;;;;;3.50;2.20;;;24.10;43.00;;;;;;5096828;28;20510;-62
2023/08/26 11:05:47;;;;;;;4.33;2.53;;;23.90;35.20;;;;;;5095943;28;20453;-62
2023/08/26 11:08:15;;;;;;;4.20;2.07;;;24.00;42.60;;;;;;5096770;28;20546;-62
2023/08/26 11:10:44;;;;;;;2.50;2.30;;;24.50;46.00;;;;;;5096647;28;20551;-63
2023/08/26 11:13:12;;;;;;;3.80;2.70;;;24.80;76.70;;;;;;5099912;28;20494;-63
2023/08/26 11:15:40;;;;;;;2.60;1.90;;;25.10;93.50;;;;;;5118046;28;20880;-63
2023/08/26 11:18:09;;;;;;;2.87;2.57;;;25.50;94.10;;;;;;5119969;28;20455;-63
2023/08/26 11:20:36;;;;;;;7.03;3.53;;;25.30;97.30;;;;;;5123396;27;20474;-64
2023/08/26 11:23:04;;;;;;;4.03;1.80;;;25.10;79.60;;;;;;5132099;27;20478;-62
2023/08/26 11:25:34;;;;;;;2.43;2.00;;;24.80;47.40;;;;;;5120397;27;20459;-63
2023/08/26 11:28:08;;;;;;;2.40;1.97;;;25.40;77.30;;;;;;5118810;28;20797;-62
2023/08/26 11:30:38;;;;;;;4.60;2.47;;;25.40;77.80;;;;;;5118531;28;20467;-63
2023/08/26 11:33:09;;;;;;;2.10;1.80;;;25.70;95.40;;;;;;5119279;28;20458;-63
2023/08/26 11:35:38;;;;;;;3.33;1.93;;;25.60;91.60;;;;;;5118469;28;20588;-63
2023/08/26 11:38:07;;;;;;;2.53;2.07;;;25.70;95.70;;;;;;5118313;28;20533;-63
2023/08/26 11:40:35;;;;;;;6.30;2.70;;;25.80;92.60;;;;;;5122669;27;20462;-62
2023/08/26 11:43:08;;;;;;;4.90;2.27;;;25.50;90.20;;;;;;5119995;27;20538;-62
2023/08/26 11:45:36;;;;;;;3.90;2.63;;;25.10;31.30;;;;;;5117784;28;20466;-62
2023/08/26 11:48:04;;;;;;;2.60;2.17;;;24.60;14.00;;;;;;5116657;28;20459;-62
2023/08/26 11:50:34;;;;;;;2.80;2.37;;;23.90;1.00;;;;;;5099838;28;20472;-62
2023/08/26 11:53:03;;;;;;;3.93;2.10;;;23.40;1.00;;;;;;5098210;28;20460;-62
2023/08/26 11:55:32;;;;;;;2.67;1.90;;;23.40;1.00;;;;;;5098009;28;20492;-62
2023/08/26 11:58:00;;;;;;;2.13;1.90;;;23.80;1.00;;;;;;5116638;28;20899;-62
2023/08/26 12:00:29;;;;;;;4.30;2.97;;;24.60;1.00;;;;;;5119755;28;20460;-63
2023/08/26 12:03:01;;;;;;;4.70;2.40;;;25.50;27.10;;;;;;5123607;27;20452;-63
2023/08/26 12:05:28;;;;;;;4.20;2.50;;;26.20;51.10;;;;;;5128953;27;20740;-63
2023/08/26 12:07:57;;;;;;;2.47;2.10;;;26.40;77.10;;;;;;5127902;27;20549;-63
2023/08/26 12:10:25;;;;;;;3.60;2.07;;;26.40;56.90;;;;;;5126574;27;20492;-62
2023/08/26 12:13:04;;;;;;;6.57;2.30;;;26.30;55.90;;;;;;5126967;27;20465;-63
2023/08/26 12:15:33;;;;;;;3.50;2.70;;;26.60;56.20;;;;;;5124911;27;20585;-62
2023/08/26 12:18:01;;;;;;;2.70;2.20;;;26.30;44.70;;;;;;5120100;27;20775;-63
2023/08/26 12:20:29;;;;;;;2.43;2.23;;;26.40;53.10;;;;;;5126045;27;20447;-63
2023/08/26 12:22:59;;;;;;;3.20;2.10;;;26.60;39.80;;;;;;5123842;27;20611;-62
2023/08/26 12:25:30;;;;;;;2.30;2.10;;;26.30;32.70;;;;;;5127781;27;20445;-62
2023/08/26 12:28:05;;;;;;;2.47;2.20;;;25.60;13.10;;;;;;5133891;27;20515;-62
2023/08/26 12:30:34;;;;;;;2.47;2.27;;;25.00;1.00;;;;;;5140027;27;20822;-63
2023/08/26 12:33:04;;;;;;;3.17;2.37;;;25.00;1.00;;;;;;5126103;27;20495;-62
2023/08/26 12:35:32;;;;;;;3.87;2.00;;;25.30;1.00;;;;;;5117483;28;20533;-62
2023/08/26 12:38:02;;;;;;;3.17;2.33;;;25.80;1.70;;;;;;5098518;28;20927;-62
2023/08/26 12:40:31;;;;;;;2.40;2.20;;;25.70;1.00;;;;;;5117908;28;20494;-62
2023/08/26 12:42:58;;;;;;;2.40;2.20;;;25.10;1.00;;;;;;5095408;28;20487;-62
2023/08/26 12:45:26;;;;;;;2.33;1.57;;;24.40;1.00;;;;;;5088463;28;20882;-62
2023/08/26 12:47:55;;;;;;;4.73;2.30;;;24.00;1.00;;;;;;5093707;28;20615;-62
2023/08/26 12:50:22;;;;;;;2.80;2.10;;;23.70;1.00;;;;;;5097391;28;20457;-63
2023/08/26 12:52:50;;;;;;;2.90;2.20;;;24.20;1.00;;;;;;5093652;28;20550;-69